createdAt,value
2018-12-29T00:01:07.000Z,92.1
2018-12-29T00:02:19.000Z,92
2018-12-29T00:03:32.000Z,91.9
2018-12-29T00:04:45.315Z,92.2
2018-12-29T00:05:56.000Z,92.2
2018-12-29T00:07:21.000Z,92.2
2018-12-29T00:08:20.000Z,91.9
2018-12-29T00:09:33.000Z,92
2018-12-29T00:10:51.000Z,91.8
2018-12-29T00:11:57.000Z,91.7
2018-12-29T00:13:10.686Z,91.6
2018-12-29T00:14:22.878Z,91.7
2018-12-29T00:15:35.007Z,91.6
2018-12-29T00:17:15.000Z,91.5
2018-12-29T00:17:58.000Z,91.4
2018-12-29T00:19:11.666Z,91.4
2018-12-29T00:20:22.000Z,91.5
2018-12-29T00:21:35.000Z,91.4
2018-12-29T00:22:47.000Z,91.6
2018-12-29T00:24:00.443Z,91.7
2018-12-29T00:25:11.000Z,91.4
2018-12-29T00:26:24.840Z,91.3
2018-12-29T00:27:36.000Z,91.3
2018-12-29T00:28:48.000Z,91.4
2018-12-29T00:30:01.436Z,91.4
2018-12-29T00:31:12.000Z,91.4
2018-12-29T00:32:25.829Z,91.4
2018-12-29T00:33:36.000Z,91.4
2018-12-29T00:34:49.000Z,91.1
2018-12-29T00:36:07.000Z,91
2018-12-29T00:37:14.600Z,90.8
2018-12-29T00:38:26.079Z,91
2018-12-29T00:39:37.000Z,91.1
2018-12-29T00:40:50.000Z,91.1
2018-12-29T00:42:02.000Z,90.9
2018-12-29T00:43:14.000Z,90.8
2018-12-29T00:44:27.774Z,90.7
2018-12-29T00:45:38.000Z,91
2018-12-29T00:46:51.000Z,91
2018-12-29T00:48:03.000Z,91.1
2018-12-29T00:49:15.000Z,91
2018-12-29T00:50:27.000Z,91
2018-12-29T00:52:53.015Z,90.8
2018-12-29T00:54:04.000Z,90.6
2018-12-29T00:55:17.538Z,90.6
2018-12-29T00:56:28.000Z,90.9
2018-12-29T00:57:40.000Z,91
2018-12-29T00:58:53.000Z,90.9
2018-12-29T01:00:05.000Z,90.8
2018-12-29T01:01:17.000Z,90.5
2018-12-29T01:02:30.709Z,90.5
2018-12-29T01:03:41.000Z,90.4
2018-12-29T01:04:55.112Z,90.4
2018-12-29T01:06:06.000Z,90.7
2018-12-29T01:07:19.488Z,90.6
2018-12-29T01:08:30.000Z,90.8
2018-12-29T01:09:42.000Z,90.9
2018-12-29T01:10:55.000Z,90.9
2018-12-29T01:12:07.000Z,91.1
2018-12-29T01:13:20.475Z,91.1
2018-12-29T01:14:31.000Z,91
2018-12-29T01:15:43.000Z,90.9
2018-12-29T01:16:56.000Z,91
2018-12-29T01:18:09.254Z,90.8
2018-12-29T01:19:21.045Z,90.8
2018-12-29T01:20:32.000Z,90.7
2018-12-29T01:21:44.000Z,90.7
2018-12-29T01:22:57.000Z,90.8
2018-12-29T01:25:21.000Z,91
2018-12-29T01:26:34.623Z,90.8
2018-12-29T01:27:45.000Z,90.8
2018-12-29T01:28:57.000Z,90.6
2018-12-29T01:30:10.000Z,90.5
2018-12-29T01:31:22.000Z,90.7
2018-12-29T01:32:34.000Z,90.8
2018-12-29T01:33:46.000Z,90.5
2018-12-29T01:36:12.189Z,90.3
2018-12-29T01:37:23.000Z,90.3
2018-12-29T01:38:36.577Z,90.4
2018-12-29T01:39:47.000Z,90.5
2018-12-29T01:41:01.000Z,90.5
2018-12-29T01:42:12.000Z,90.5
2018-12-29T01:43:25.365Z,90.5
2018-12-29T01:44:37.558Z,90.4
2018-12-29T01:45:49.757Z,90.5
2018-12-29T01:47:00.000Z,90.7
2018-12-29T01:48:13.000Z,91
2018-12-29T01:49:25.000Z,91.1
2018-12-29T01:50:38.533Z,90.9
2018-12-29T01:51:49.000Z,91.1
2018-12-29T01:53:01.000Z,91.4
2018-12-29T01:54:14.000Z,91
2018-12-29T01:55:27.032Z,90.9
2018-12-29T01:56:38.000Z,91
2018-12-29T01:57:50.000Z,90.8
2018-12-29T01:59:02.000Z,90.9
2018-12-29T02:00:15.000Z,90.8
2018-12-29T02:01:27.000Z,90.7
2018-12-29T02:02:39.000Z,90.6
2018-12-29T02:03:51.000Z,90.5
2018-12-29T02:05:04.893Z,90.4
2018-12-29T02:06:16.000Z,90.3
2018-12-29T02:07:28.000Z,90.2
2018-12-29T02:08:40.000Z,90.3
2018-12-29T02:09:52.000Z,90.4
2018-12-29T02:11:05.868Z,90.3
2018-12-29T02:12:17.000Z,90.2
2018-12-29T02:13:29.000Z,90.2
2018-12-29T02:14:41.000Z,90.4
2018-12-29T02:15:54.646Z,90.7
2018-12-29T02:17:06.847Z,90.7
2018-12-29T02:18:18.000Z,90.6
2018-12-29T02:19:31.240Z,90.4
2018-12-29T02:20:42.000Z,90.4
2018-12-29T02:21:54.000Z,90.3
2018-12-29T02:23:06.000Z,90.3
2018-12-29T02:25:31.000Z,90.3
2018-12-29T02:26:43.000Z,90.4
2018-12-29T02:27:55.000Z,90.2
2018-12-29T02:29:08.808Z,90.3
2018-12-29T02:30:19.000Z,90.4
2018-12-29T02:31:33.197Z,90.3
2018-12-29T02:32:44.000Z,90.3
2018-12-29T02:33:56.000Z,90
2018-12-29T02:35:08.000Z,90
2018-12-29T02:36:20.000Z,89.9
2018-12-29T02:37:34.173Z,90
2018-12-29T02:38:45.000Z,90.3
2018-12-29T02:39:57.000Z,90.3
2018-12-29T02:41:10.757Z,90.4
2018-12-29T02:42:21.000Z,90.2
2018-12-29T02:43:35.138Z,90.4
2018-12-29T02:44:46.000Z,90.4
2018-12-29T02:45:58.000Z,90.5
2018-12-29T02:47:11.721Z,90.5
2018-12-29T02:48:23.911Z,90.3
2018-12-29T02:49:35.000Z,90.2
2018-12-29T02:50:48.302Z,90.3
2018-12-29T02:51:59.000Z,90
2018-12-29T02:53:11.000Z,90
2018-12-29T02:54:23.000Z,90
2018-12-29T02:55:36.000Z,90
2018-12-29T02:56:49.270Z,90.2
2018-12-29T02:58:00.000Z,90.2
2018-12-29T02:59:12.000Z,90.3
2018-12-29T03:00:24.000Z,90
2018-12-29T03:01:38.052Z,90
2018-12-29T03:04:01.000Z,90
2018-12-29T03:05:13.000Z,90.2
2018-12-29T03:06:25.000Z,90.2
2018-12-29T03:07:37.000Z,90.2
2018-12-29T03:08:50.000Z,90.4
2018-12-29T03:10:02.000Z,90.6
2018-12-29T03:11:14.000Z,90.9
2018-12-29T03:12:26.000Z,90.9
2018-12-29T03:13:38.000Z,90.8
2018-12-29T03:14:52.185Z,90.9
2018-12-29T03:16:03.000Z,90.6
2018-12-29T03:17:15.000Z,90.5
2018-12-29T03:18:27.000Z,90.2
2018-12-29T03:19:40.959Z,90.5
2018-12-29T03:20:52.000Z,90.6
2018-12-29T03:22:04.000Z,90.6
2018-12-29T03:23:16.000Z,90.5
2018-12-29T03:24:28.000Z,90.4
2018-12-29T03:25:41.930Z,90.4
2018-12-29T03:26:54.116Z,90.5
2018-12-29T03:28:05.000Z,90.3
2018-12-29T03:29:17.000Z,90.3
2018-12-29T03:30:29.000Z,90.3
2018-12-29T03:31:41.000Z,90.3
2018-12-29T03:32:54.000Z,90.3
2018-12-29T03:34:06.000Z,90.5
2018-12-29T03:35:19.482Z,90.5
2018-12-29T03:36:30.000Z,90.6
2018-12-29T03:37:42.000Z,90.5
2018-12-29T03:38:56.063Z,90.5
2018-12-29T03:40:07.000Z,90.3
2018-12-29T03:41:19.000Z,90.3
2018-12-29T03:42:31.000Z,90
2018-12-29T03:43:43.000Z,90.3
2018-12-29T03:44:56.000Z,90.2
2018-12-29T03:46:08.000Z,90
2018-12-29T03:47:20.000Z,90
2018-12-29T03:48:33.608Z,90
2018-12-29T03:49:44.000Z,90.2
2018-12-29T03:50:57.099Z,90.3
2018-12-29T03:52:10.201Z,90.3
2018-12-29T03:53:21.000Z,90.3
2018-12-29T03:54:33.000Z,90.2
2018-12-29T03:55:45.000Z,90.2
2018-12-29T03:56:58.974Z,90
2018-12-29T03:58:10.000Z,90
2018-12-29T03:59:22.000Z,90
2018-12-29T04:00:34.000Z,90
2018-12-29T04:01:46.000Z,90
2018-12-29T04:02:59.941Z,89.8
2018-12-29T04:04:12.140Z,90
2018-12-29T04:05:24.331Z,90
2018-12-29T04:06:35.000Z,90.2
2018-12-29T04:08:59.000Z,90.2
2018-12-29T04:10:12.000Z,90.3
2018-12-29T04:11:24.000Z,90.4
2018-12-29T04:12:36.000Z,90.3
2018-12-29T04:13:48.000Z,90.3
2018-12-29T04:15:01.879Z,90.3
2018-12-29T04:16:13.000Z,90.2
2018-12-29T04:17:25.000Z,90.5
2018-12-29T04:18:37.000Z,90.5
2018-12-29T04:19:49.000Z,90.6
2018-12-29T04:21:01.000Z,91
2018-12-29T04:22:14.000Z,91.1
2018-12-29T04:23:27.238Z,91.3
2018-12-29T04:24:38.000Z,91.1
2018-12-29T04:25:50.000Z,91
2018-12-29T04:27:02.000Z,90.8
2018-12-29T04:28:14.000Z,90.6
2018-12-29T04:29:27.000Z,90.5
2018-12-29T04:30:40.403Z,90.5
2018-12-29T04:31:51.000Z,91.2
2018-12-29T04:33:03.000Z,91.2
2018-12-29T04:34:15.000Z,90.8
2018-12-29T04:35:28.000Z,91
2018-12-29T04:36:40.000Z,91
2018-12-29T04:37:52.000Z,90.9
2018-12-29T04:39:04.000Z,90.9
2018-12-29T04:40:16.000Z,91
2018-12-29T04:41:30.141Z,91
2018-12-29T04:42:42.344Z,90.9
2018-12-29T04:43:53.000Z,90.7
2018-12-29T04:45:06.725Z,90.7
2018-12-29T04:46:17.000Z,90.7
2018-12-29T04:47:30.000Z,90.6
2018-12-29T04:48:43.316Z,90.7
2018-12-29T04:49:54.000Z,90.7
2018-12-29T04:51:06.000Z,90.6
2018-12-29T04:52:18.000Z,90.6
2018-12-29T04:53:31.000Z,90.6
2018-12-29T04:54:44.280Z,90.5
2018-12-29T04:55:56.473Z,90.3
2018-12-29T04:57:08.067Z,90.2
2018-12-29T04:58:19.000Z,90.2
2018-12-29T04:59:32.000Z,90.2
2018-12-29T05:00:45.249Z,90.3
2018-12-29T05:01:56.000Z,90.3
2018-12-29T05:03:08.000Z,90.5
2018-12-29T05:04:20.000Z,90.3
2018-12-29T05:05:33.000Z,90.2
2018-12-29T05:06:45.000Z,90.3
2018-12-29T05:07:57.000Z,90.4
2018-12-29T05:09:09.000Z,90.2
2018-12-29T05:10:21.000Z,90.4
2018-12-29T05:11:33.000Z,90.6
2018-12-29T05:12:46.000Z,90.6
2018-12-29T05:13:58.000Z,90.6
2018-12-29T05:15:11.057Z,90.5
2018-12-29T05:16:22.000Z,90.5
2018-12-29T05:17:34.000Z,90.5
2018-12-29T05:18:47.000Z,90.2
2018-12-29T05:19:59.000Z,90
2018-12-29T05:21:11.000Z,90
2018-12-29T05:22:23.000Z,90
2018-12-29T05:23:35.000Z,90.3
2018-12-29T05:24:48.000Z,90.5
2018-12-29T05:26:00.000Z,90.5
2018-12-29T05:27:13.519Z,90.5
2018-12-29T05:28:24.000Z,90.4
2018-12-29T05:29:36.000Z,90.4
2018-12-29T05:30:49.000Z,90.4
2018-12-29T05:32:01.000Z,90.2
2018-12-29T05:33:14.048Z,90.2
2018-12-29T05:34:25.000Z,90.3
2018-12-29T05:35:37.000Z,90.4
2018-12-29T05:36:51.074Z,90.5
2018-12-29T05:38:02.000Z,90.5
2018-12-29T05:39:15.462Z,90.7
2018-12-29T05:40:27.661Z,90.7
2018-12-29T05:41:38.000Z,90.7
2018-12-29T05:42:51.000Z,90.7
2018-12-29T05:44:03.000Z,90.7
2018-12-29T05:45:15.000Z,90.6
2018-12-29T05:46:27.000Z,90.6
2018-12-29T05:47:39.000Z,90.8
2018-12-29T05:48:51.000Z,91
2018-12-29T05:50:04.000Z,90.9
2018-12-29T05:51:17.394Z,91.1
2018-12-29T05:52:28.000Z,91.1
2018-12-29T05:53:40.000Z,91.1
2018-12-29T05:54:53.983Z,90.8
2018-12-29T05:56:06.018Z,90.8
2018-12-29T05:57:17.000Z,90.5
2018-12-29T05:58:29.000Z,90.5
2018-12-29T05:59:41.000Z,90.4
2018-12-29T06:00:54.959Z,90.2
2018-12-29T06:02:07.147Z,89.9
2018-12-29T06:03:19.344Z,89.9
2018-12-29T06:04:30.000Z,89.8
2018-12-29T06:05:42.000Z,89.6
2018-12-29T06:06:55.925Z,89.6
2018-12-29T06:08:07.000Z,89.8
2018-12-29T06:09:19.000Z,89.7
2018-12-29T06:10:31.000Z,89.8
2018-12-29T06:11:43.000Z,90
2018-12-29T06:12:56.897Z,90
2018-12-29T06:14:08.000Z,89.8
2018-12-29T06:15:21.281Z,89.9
2018-12-29T06:16:32.000Z,89.8
2018-12-29T06:17:44.000Z,90.2
2018-12-29T06:18:56.000Z,90.4
2018-12-29T06:20:10.056Z,90.4
2018-12-29T06:21:22.250Z,90.4
2018-12-29T06:22:33.000Z,90.5
2018-12-29T06:23:45.000Z,90.7
2018-12-29T06:24:57.000Z,90.7
2018-12-29T06:26:10.000Z,90.7
2018-12-29T06:27:22.000Z,90.5
2018-12-29T06:28:34.000Z,90.4
2018-12-29T06:29:47.611Z,90.3
2018-12-29T06:30:59.080Z,90.3
2018-12-29T06:32:11.009Z,90.1
2018-12-29T06:33:23.000Z,90.1
2018-12-29T06:34:35.000Z,90
2018-12-29T06:35:47.000Z,89.8
2018-12-29T06:36:59.000Z,89.8
2018-12-29T06:38:11.000Z,89.7
2018-12-29T06:39:24.000Z,89.6
2018-12-29T06:40:36.000Z,89.5
2018-12-29T06:41:48.000Z,89.5
2018-12-29T06:43:00.000Z,89.5
2018-12-29T06:44:12.000Z,89.3
2018-12-29T06:45:26.132Z,89.6
2018-12-29T06:46:37.000Z,89.6
2018-12-29T06:47:49.000Z,89.5
2018-12-29T06:49:01.000Z,89.7
2018-12-29T06:50:13.000Z,89.7
2018-12-29T06:51:26.000Z,89.7
2018-12-29T06:52:38.000Z,89.8
2018-12-29T06:53:50.000Z,89.5
2018-12-29T06:55:02.000Z,89.5
2018-12-29T06:56:14.000Z,89.6
2018-12-29T06:57:27.000Z,89.8
2018-12-29T06:58:39.000Z,89.6
2018-12-29T06:59:52.459Z,89.5
2018-12-29T07:01:03.000Z,89.6
2018-12-29T07:02:15.000Z,89.7
2018-12-29T07:03:28.000Z,89.9
2018-12-29T07:04:40.000Z,89.8
2018-12-29T07:05:53.432Z,90
2018-12-29T07:07:05.628Z,89.9
2018-12-29T07:08:16.000Z,90
2018-12-29T07:09:30.007Z,89.9
2018-12-29T07:10:41.000Z,89.7
2018-12-29T07:11:53.000Z,89.6
2018-12-29T07:13:05.000Z,89.7
2018-12-29T07:14:17.000Z,89.7
2018-12-29T07:15:29.000Z,89.8
2018-12-29T07:16:42.000Z,89.7
2018-12-29T07:17:55.367Z,89.5
2018-12-29T07:19:06.000Z,89.6
2018-12-29T07:20:18.000Z,89.7
2018-12-29T07:21:30.000Z,89.6
2018-12-29T07:22:43.000Z,89.6
2018-12-29T07:23:55.000Z,89.8
2018-12-29T07:25:07.000Z,90
2018-12-29T07:26:19.000Z,89.8
2018-12-29T07:27:32.092Z,89.6
2018-12-29T07:28:44.000Z,89.6
2018-12-29T07:29:56.000Z,89.8
2018-12-29T07:31:09.050Z,89.6
2018-12-29T07:32:20.000Z,89.6
2018-12-29T07:33:32.000Z,89.5
2018-12-29T07:34:45.000Z,89.7
2018-12-29T07:35:58.027Z,89.6
2018-12-29T07:37:09.000Z,89.7
2018-12-29T07:38:21.000Z,89.6
2018-12-29T07:39:34.865Z,89.9
2018-12-29T07:40:46.000Z,90
2018-12-29T07:41:58.000Z,89.9
2018-12-29T07:43:11.442Z,89.7
2018-12-29T07:44:23.643Z,89.8
2018-12-29T07:45:34.000Z,90.2
2018-12-29T07:46:47.000Z,90.5
2018-12-29T07:47:59.000Z,90.5
2018-12-29T07:49:11.000Z,90.5
2018-12-29T07:50:24.605Z,90.5
2018-12-29T07:51:36.008Z,90.2
2018-12-29T07:52:47.000Z,90.1
2018-12-29T07:54:00.000Z,89.9
2018-12-29T07:55:12.000Z,90
2018-12-29T07:56:24.000Z,90.5
2018-12-29T07:57:37.779Z,90.1
2018-12-29T07:58:48.000Z,89.8
2018-12-29T08:00:01.000Z,89.4
2018-12-29T08:01:13.000Z,89.4
2018-12-29T08:02:25.000Z,89.4
2018-12-29T08:03:38.740Z,89.4
2018-12-29T08:04:50.936Z,89
2018-12-29T08:06:02.000Z,88.9
2018-12-29T08:07:15.324Z,89.1
2018-12-29T08:08:26.000Z,89.4
2018-12-29T08:09:39.719Z,89.7
2018-12-29T08:10:50.000Z,90.1
2018-12-29T08:12:03.000Z,90
2018-12-29T08:13:15.000Z,89.9
2018-12-29T08:14:27.000Z,89.6
2018-12-29T08:15:40.680Z,89.4
2018-12-29T08:16:51.000Z,89.2
2018-12-29T08:18:04.000Z,89.3
2018-12-29T08:19:16.000Z,89.4
2018-12-29T08:20:29.045Z,89.5
2018-12-29T08:21:40.000Z,89.5
2018-12-29T08:22:52.000Z,89.2
2018-12-29T08:24:05.000Z,89.5
2018-12-29T08:25:18.232Z,89.8
2018-12-29T08:26:29.000Z,89.5
2018-12-29T08:27:42.620Z,89.5
2018-12-29T08:28:53.000Z,89.4
2018-12-29T08:30:07.021Z,89.2
2018-12-29T08:31:18.000Z,89.2
2018-12-29T08:32:30.000Z,89.3
2018-12-29T08:33:43.593Z,89.3
2018-12-29T08:34:54.000Z,89.4
2018-12-29T08:36:06.000Z,89.5
2018-12-29T08:37:19.000Z,89.1
2018-12-29T08:38:31.000Z,89.5
2018-12-29T08:39:44.558Z,90.3
2018-12-29T08:40:55.000Z,90.1
2018-12-29T08:42:07.000Z,89.6
2018-12-29T08:43:20.000Z,90
2018-12-29T08:44:32.000Z,90.1
2018-12-29T08:45:44.000Z,90
2018-12-29T08:46:57.765Z,90
2018-12-29T08:48:09.919Z,89.8
2018-12-29T08:49:21.000Z,89.5
2018-12-29T08:50:33.000Z,89.5
2018-12-29T08:51:45.000Z,89.8
2018-12-29T08:52:57.000Z,89.3
2018-12-29T08:54:09.000Z,89.1
2018-12-29T08:55:22.000Z,88.7
2018-12-29T08:56:34.000Z,88.8
2018-12-29T08:57:46.000Z,88.6
2018-12-29T08:58:58.000Z,88.7
2018-12-29T09:00:11.086Z,88.9
2018-12-29T09:01:23.000Z,88.8
2018-12-29T09:02:35.000Z,88.8
2018-12-29T09:03:48.440Z,89.1
2018-12-29T09:05:00.635Z,88.9
2018-12-29T09:06:11.000Z,88.9
2018-12-29T09:07:24.000Z,89.6
2018-12-29T09:08:37.214Z,90
2018-12-29T09:09:48.000Z,89.8
2018-12-29T09:11:00.000Z,89.7
2018-12-29T09:12:13.080Z,89.7
2018-12-29T09:13:24.000Z,88.8
2018-12-29T09:14:37.000Z,88.4
2018-12-29T09:15:49.000Z,87.9
2018-12-29T09:17:01.000Z,87.2
2018-12-29T09:18:13.000Z,87.5
2018-12-29T09:19:25.000Z,87.1
2018-12-29T09:20:38.000Z,87.6
2018-12-29T09:21:50.000Z,87.7
2018-12-29T09:23:02.000Z,87.3
2018-12-29T09:24:14.000Z,87.5
2018-12-29T09:25:27.933Z,86.8
2018-12-29T09:26:39.000Z,86.8
2018-12-29T09:27:52.330Z,86.5
2018-12-29T09:29:03.000Z,85.7
2018-12-29T09:30:15.000Z,85.9
2018-12-29T09:31:27.000Z,86.1
2018-12-29T09:32:40.000Z,86.1
2018-12-29T09:33:53.295Z,85.8
2018-12-29T09:35:04.000Z,85.5
2018-12-29T09:36:16.000Z,86.5
2018-12-29T09:37:28.000Z,86.5
2018-12-29T09:38:42.076Z,86.8
2018-12-29T09:39:53.000Z,85.7
2018-12-29T09:41:06.460Z,86
2018-12-29T09:42:17.000Z,86.2
2018-12-29T09:43:29.000Z,86.3
2018-12-29T09:44:42.000Z,86.2
2018-12-29T09:45:54.000Z,85.5
2018-12-29T09:47:06.000Z,86.3
2018-12-29T09:48:18.000Z,86.4
2018-12-29T09:49:30.000Z,86.5
2018-12-29T09:50:42.000Z,86
2018-12-29T09:51:55.000Z,85.5
2018-12-29T09:53:07.000Z,84.2
2018-12-29T09:54:20.599Z,84.9
2018-12-29T09:55:31.000Z,85.2
2018-12-29T09:56:44.978Z,85
2018-12-29T09:57:56.000Z,84.5
2018-12-29T09:59:08.000Z,84.5
2018-12-29T10:00:20.000Z,86
2018-12-29T10:01:32.000Z,86.6
2018-12-29T10:02:44.000Z,85.8
2018-12-29T10:03:58.140Z,84.8
2018-12-29T10:05:09.000Z,85.3
2018-12-29T10:06:22.531Z,84.1
2018-12-29T10:07:33.000Z,84.8
2018-12-29T10:08:45.000Z,84.9
2018-12-29T10:09:58.000Z,84.6
2018-12-29T10:11:10.000Z,84.8
2018-12-29T10:12:22.000Z,85.2
2018-12-29T10:13:34.000Z,85.6
2018-12-29T10:14:47.889Z,85.1
2018-12-29T10:15:59.000Z,84.5
2018-12-29T10:17:11.000Z,83.5
2018-12-29T10:18:23.000Z,83.3
2018-12-29T10:19:35.000Z,83.8
2018-12-29T10:20:47.000Z,83.5
2018-12-29T10:22:03.000Z,84.1
2018-12-29T10:23:12.000Z,83.5
2018-12-29T10:24:25.439Z,83.8
2018-12-29T10:25:36.000Z,83.3
2018-12-29T10:26:48.000Z,83.3
2018-12-29T10:28:01.000Z,83.1
2018-12-29T10:29:13.000Z,83.3
2018-12-29T10:30:25.000Z,83.3
2018-12-29T10:31:37.000Z,83.4
2018-12-29T10:32:50.798Z,83.8
2018-12-29T10:34:01.000Z,83.8
2018-12-29T10:35:14.000Z,83.6
2018-12-29T10:36:26.000Z,83.4
2018-12-29T10:38:50.000Z,84
2018-12-29T10:40:03.968Z,84.5
2018-12-29T10:41:15.000Z,84.9
2018-12-29T10:42:28.354Z,84.8
2018-12-29T10:43:39.000Z,84
2018-12-29T10:44:52.743Z,83.9
2018-12-29T10:46:03.000Z,83.8
2018-12-29T10:47:16.000Z,83
2018-12-29T10:48:28.000Z,83.3
2018-12-29T10:50:52.000Z,85.4
2018-12-29T10:52:05.933Z,85.4
2018-12-29T10:53:17.000Z,85.2
2018-12-29T10:54:29.000Z,83.9
2018-12-29T10:55:41.000Z,83.6
2018-12-29T10:56:53.000Z,83.1
2018-12-29T10:58:06.875Z,82.3
2018-12-29T10:59:18.000Z,82.3
2018-12-29T11:00:30.000Z,82.1
2018-12-29T11:01:42.000Z,82.2
2018-12-29T11:02:54.000Z,82.5
2018-12-29T11:04:06.000Z,83.5
2018-12-29T11:05:19.000Z,84.1
2018-12-29T11:06:31.000Z,84.6
2018-12-29T11:07:43.000Z,84.5
2018-12-29T11:08:55.000Z,84.5
2018-12-29T11:10:07.000Z,84.2
2018-12-29T11:11:19.000Z,83.8
2018-12-29T11:12:32.000Z,84
2018-12-29T11:13:44.000Z,84.3
2018-12-29T11:14:56.000Z,84.2
2018-12-29T11:16:09.784Z,83.8
2018-12-29T11:17:21.991Z,83.4
2018-12-29T11:18:33.000Z,82.8
2018-12-29T11:19:45.000Z,82.1
2018-12-29T11:20:57.000Z,82.2
2018-12-29T11:22:10.755Z,81.9
2018-12-29T11:23:21.000Z,81.6
2018-12-29T11:24:34.000Z,81.9
2018-12-29T11:25:46.000Z,81.6
2018-12-29T11:26:58.000Z,81
2018-12-29T11:28:10.000Z,81
2018-12-29T11:29:22.000Z,80.6
2018-12-29T11:30:35.000Z,80
2018-12-29T11:31:47.000Z,80.8
2018-12-29T11:32:59.000Z,81
2018-12-29T11:34:11.000Z,80.6
2018-12-29T11:35:23.000Z,80.5
2018-12-29T11:36:36.000Z,81.6
2018-12-29T11:37:48.000Z,81.7
2018-12-29T11:39:00.000Z,80.9
2018-12-29T11:40:13.670Z,81.4
2018-12-29T11:41:24.000Z,82.3
2018-12-29T11:42:37.000Z,82.3
2018-12-29T11:43:50.243Z,82.6
2018-12-29T11:45:02.043Z,82.3
2018-12-29T11:46:13.000Z,82.6
2018-12-29T11:47:25.000Z,82.9
2018-12-29T11:48:37.000Z,81.9
2018-12-29T11:49:50.000Z,80.9
2018-12-29T11:51:02.000Z,80.6
2018-12-29T11:52:15.604Z,79.8
2018-12-29T11:53:26.000Z,80
2018-12-29T11:54:38.000Z,80.7
2018-12-29T11:55:51.000Z,80.6
2018-12-29T11:57:03.000Z,80.2
2018-12-29T11:58:15.000Z,80.3
2018-12-29T11:59:27.000Z,79.6
2018-12-29T12:00:40.961Z,79.9
2018-12-29T12:01:52.000Z,79.7
2018-12-29T12:03:04.000Z,79.2
2018-12-29T12:04:16.000Z,78.7
2018-12-29T12:05:28.000Z,78.1
2018-12-29T12:06:40.000Z,78.4
2018-12-29T12:07:53.000Z,79.1
2018-12-29T12:09:06.318Z,79.7
2018-12-29T12:10:17.000Z,80.8
2018-12-29T12:11:29.000Z,81.6
2018-12-29T12:12:41.000Z,82.4
2018-12-29T12:13:54.000Z,82.2
2018-12-29T12:15:06.000Z,82.6
2018-12-29T12:16:18.000Z,83.1
2018-12-29T12:17:30.000Z,83
2018-12-29T12:18:42.000Z,81.8
2018-12-29T12:19:56.074Z,82.2
2018-12-29T12:21:07.000Z,81.9
2018-12-29T12:22:19.000Z,83
2018-12-29T12:23:55.000Z,82.3
2018-12-29T12:24:43.000Z,81.8
2018-12-29T12:25:56.000Z,81.3
2018-12-29T12:27:08.000Z,81
2018-12-29T12:28:35.000Z,81.5
2018-12-29T12:29:32.000Z,81.5
2018-12-29T12:30:44.000Z,82.8
2018-12-29T12:31:56.000Z,82.1
2018-12-29T12:33:09.000Z,80.8
2018-12-29T12:34:21.000Z,80.4
2018-12-29T12:35:33.000Z,81.1
2018-12-29T12:36:45.000Z,81
2018-12-29T12:37:58.994Z,80.3
2018-12-29T12:39:10.000Z,80.4
2018-12-29T12:40:23.387Z,81
2018-12-29T12:41:34.000Z,81.1
2018-12-29T12:42:46.000Z,81.3
2018-12-29T12:43:58.000Z,81.7
2018-12-29T12:45:12.164Z,81.7
2018-12-29T12:46:23.000Z,81.3
2018-12-29T12:47:35.000Z,80.6
2018-12-29T12:48:52.000Z,80.4
2018-12-29T12:49:59.000Z,80.4
2018-12-29T12:51:12.000Z,80.9
2018-12-29T12:52:25.343Z,81.1
2018-12-29T12:53:36.000Z,81.9
2018-12-29T12:54:48.000Z,80.9
2018-12-29T12:56:00.000Z,80.3
2018-12-29T12:57:13.000Z,79.9
2018-12-29T12:58:25.000Z,80.9
2018-12-29T12:59:56.000Z,81.7
2018-12-29T13:00:49.000Z,80.9
2018-12-29T13:02:02.909Z,81.8
2018-12-29T13:04:26.000Z,82.5
2018-12-29T13:05:38.000Z,82.2
2018-12-29T13:06:50.000Z,81.7
2018-12-29T13:08:02.000Z,81.9
2018-12-29T13:09:15.000Z,82.2
2018-12-29T13:10:27.000Z,81.7
2018-12-29T13:11:39.000Z,80.6
2018-12-29T13:12:51.000Z,79.8
2018-12-29T13:14:03.000Z,79.3
2018-12-29T13:15:16.000Z,79.8
2018-12-29T13:16:29.255Z,79.4
2018-12-29T13:17:41.045Z,79.7
2018-12-29T13:18:53.643Z,80.1
2018-12-29T13:20:04.000Z,79.8
2018-12-29T13:21:17.000Z,79.4
2018-12-29T13:22:29.000Z,78.5
2018-12-29T13:23:41.000Z,78.8
2018-12-29T13:24:53.000Z,78.4
2018-12-29T13:27:19.012Z,79.6
2018-12-29T13:28:30.000Z,80.4
2018-12-29T13:29:42.000Z,80.9
2018-12-29T13:30:55.597Z,80.4
2018-12-29T13:32:06.000Z,78.8
2018-12-29T13:33:18.000Z,77.6
2018-12-29T13:34:32.186Z,78.3
2018-12-29T13:35:43.000Z,78.1
2018-12-29T13:36:55.000Z,77.3
2018-12-29T13:38:07.000Z,76.5
2018-12-29T13:39:23.000Z,76.8
2018-12-29T13:40:33.161Z,77.6
2018-12-29T13:41:44.000Z,78.3
2018-12-29T13:42:56.000Z,79.8
2018-12-29T13:44:09.745Z,80.5
2018-12-29T13:45:21.094Z,80.8
2018-12-29T13:46:34.141Z,80.2
2018-12-29T13:47:45.000Z,79.5
2018-12-29T13:48:57.000Z,78.9
2018-12-29T13:50:09.000Z,79.4
2018-12-29T13:51:21.000Z,79.3
2018-12-29T13:52:35.120Z,79.8
2018-12-29T13:53:47.311Z,80.1
2018-12-29T13:55:00.000Z,80.6
2018-12-29T13:56:10.000Z,80.5
2018-12-29T13:57:22.000Z,80.3
2018-12-29T13:58:35.000Z,80.7
2018-12-29T13:59:47.000Z,80.6
2018-12-29T14:00:59.000Z,81.1
2018-12-29T14:02:12.681Z,80.9
2018-12-29T14:03:23.000Z,80.1
2018-12-29T14:04:37.069Z,79.2
2018-12-29T14:05:48.000Z,79
2018-12-29T14:07:01.461Z,79.6
2018-12-29T14:08:12.000Z,79.3
2018-12-29T14:09:24.000Z,79.7
2018-12-29T14:10:38.042Z,81.1
2018-12-29T14:11:49.000Z,82.1
2018-12-29T14:13:01.000Z,82.3
2018-12-29T14:14:13.000Z,81.6
2018-12-29T14:15:26.826Z,81.8
2018-12-29T14:16:39.023Z,81.5
2018-12-29T14:17:50.000Z,82.1
2018-12-29T14:19:03.041Z,81.7
2018-12-29T14:20:15.610Z,82
2018-12-29T14:21:27.809Z,82.3
2018-12-29T14:22:38.000Z,82.3
2018-12-29T14:23:51.000Z,82.5
2018-12-29T14:25:04.385Z,83.3
2018-12-29T14:26:15.000Z,83.2
2018-12-29T14:27:27.000Z,83.1
2018-12-29T14:28:40.972Z,83.7
2018-12-29T14:29:53.171Z,84.3
2018-12-29T14:31:04.000Z,83.2
2018-12-29T14:32:17.560Z,82.8
2018-12-29T14:33:29.755Z,82.8
2018-12-29T14:34:40.000Z,82.5
2018-12-29T14:35:53.000Z,82
2018-12-29T14:37:05.000Z,82.3
2018-12-29T14:38:18.544Z,82.7
2018-12-29T14:39:29.000Z,82.8
2018-12-29T14:40:42.933Z,82.9
2018-12-29T14:41:55.131Z,83.1
2018-12-29T14:43:06.000Z,83.1
2018-12-29T14:44:18.000Z,82.7
2018-12-29T14:45:31.712Z,82.7
2018-12-29T14:46:43.909Z,82.5
2018-12-29T14:47:55.000Z,82.3
2018-12-29T14:49:07.000Z,81.9
2018-12-29T14:50:19.000Z,81.6
2018-12-29T14:51:32.689Z,82
2018-12-29T14:52:44.888Z,82.6
2018-12-29T14:53:56.000Z,82
2018-12-29T14:55:09.276Z,82.2
2018-12-29T14:56:21.478Z,82.9
2018-12-29T14:57:32.000Z,83
2018-12-29T14:58:44.000Z,82.7
2018-12-29T14:59:57.000Z,82.9
2018-12-29T15:01:10.025Z,83.5
2018-12-29T15:02:21.000Z,83.2
2018-12-29T15:03:34.640Z,83.1
2018-12-29T15:04:48.000Z,83.5
2018-12-29T15:05:59.039Z,83.3
2018-12-29T15:07:10.000Z,83.4
2018-12-29T15:08:22.000Z,83.3
2018-12-29T15:09:35.623Z,83.2
2018-12-29T15:10:46.000Z,83.5
2018-12-29T15:11:58.000Z,83.3
2018-12-29T15:13:11.000Z,83.6
2018-12-29T15:14:24.400Z,83.7
2018-12-29T15:15:35.000Z,84
2018-12-29T15:16:48.801Z,84.1
2018-12-29T15:17:59.000Z,83.9
2018-12-29T15:19:13.210Z,84.2
2018-12-29T15:20:24.000Z,84.4
2018-12-29T15:21:37.583Z,84.7
2018-12-29T15:22:48.000Z,84.7
2018-12-29T15:24:00.000Z,84.4
2018-12-29T15:25:14.165Z,84.7
2018-12-29T15:26:25.000Z,84.7
2018-12-29T15:27:37.000Z,84.9
2018-12-29T15:28:49.000Z,85.1
2018-12-29T15:30:01.000Z,85.1
2018-12-29T15:31:15.141Z,85.1
2018-12-29T15:32:26.000Z,85
2018-12-29T15:33:38.000Z,85
2018-12-29T15:34:50.000Z,85.5
2018-12-29T15:36:02.000Z,85.4
2018-12-29T15:37:15.000Z,85.2
2018-12-29T15:38:28.311Z,85.1
2018-12-29T15:39:39.000Z,85.2
2018-12-29T15:40:52.709Z,85.4
2018-12-29T15:42:03.000Z,85
2018-12-29T15:43:16.000Z,84.6
2018-12-29T15:44:28.000Z,84.9
2018-12-29T15:45:40.000Z,84.7
2018-12-29T15:46:52.000Z,84.2
2018-12-29T15:48:04.000Z,84.1
2018-12-29T15:49:17.000Z,84.4
2018-12-29T15:50:29.000Z,84.9
2018-12-29T15:51:41.000Z,85.3
2018-12-29T15:52:54.658Z,85.6
2018-12-29T15:54:05.000Z,85.6
2018-12-29T15:55:18.000Z,85.9
2018-12-29T15:56:30.000Z,85.5
2018-12-29T15:58:54.000Z,85.5
2018-12-29T16:00:06.000Z,85.5
2018-12-29T16:01:20.024Z,85.5
2018-12-29T16:02:32.021Z,85.5
2018-12-29T16:03:43.000Z,85.8
2018-12-29T16:04:55.000Z,85.9
2018-12-29T16:06:07.000Z,85.9
2018-12-29T16:07:19.000Z,85.6
2018-12-29T16:08:32.000Z,85.8
2018-12-29T16:09:45.393Z,86
2018-12-29T16:10:56.000Z,86.3
2018-12-29T16:12:08.000Z,86.5
2018-12-29T16:13:20.000Z,86.5
2018-12-29T16:14:33.000Z,86.5
2018-12-29T16:15:45.000Z,86.2
2018-12-29T16:16:57.000Z,86.1
2018-12-29T16:18:10.771Z,86.1
2018-12-29T16:19:22.096Z,86.2
2018-12-29T16:20:34.000Z,86
2018-12-29T16:21:46.000Z,86